sensor_id;sensor_type;location;lat;lon;timestamp;pressure;altitude;pressure_sealevel;temperature
12430;BMP280;6279;42.192;24.326;2022-12-16T00:00:15;99183.69;;;5.76
12430;BMP280;6279;42.192;24.326;2022-12-16T00:02:41;99175.66;;;5.79
12430;BMP280;6279;42.192;24.326;2022-12-16T00:05:06;99177.28;;;5.71
12430;BMP280;6279;42.192;24.326;2022-12-16T00:07:32;99201.22;;;5.53
12430;BMP280;6279;42.192;24.326;2022-12-16T00:09:58;99203.66;;;5.45
12430;BMP280;6279;42.192;24.326;2022-12-16T00:12:23;99201.91;;;5.46
12430;BMP280;6279;42.192;24.326;2022-12-16T00:14:48;99202.16;;;5.52
12430;BMP280;6279;42.192;24.326;2022-12-16T00:17:14;99200.72;;;5.59
12430;BMP280;6279;42.192;24.326;2022-12-16T00:19:39;99195.16;;;5.63
12430;BMP280;6279;42.192;24.326;2022-12-16T00:22:05;99201.81;;;5.66
12430;BMP280;6279;42.192;24.326;2022-12-16T00:24:30;99216.59;;;5.64
12430;BMP280;6279;42.192;24.326;2022-12-16T00:26:56;99219.03;;;5.56
12430;BMP280;6279;42.192;24.326;2022-12-16T00:29:21;99211.31;;;5.65
12430;BMP280;6279;42.192;24.326;2022-12-16T00:31:47;99213.47;;;5.60
12430;BMP280;6279;42.192;24.326;2022-12-16T00:34:13;99218.09;;;5.57
12430;BMP280;6279;42.192;24.326;2022-12-16T00:36:39;99218.22;;;5.55
12430;BMP280;6279;42.192;24.326;2022-12-16T00:39:04;99215.75;;;5.54
12430;BMP280;6279;42.192;24.326;2022-12-16T00:41:30;99203.81;;;5.53
12430;BMP280;6279;42.192;24.326;2022-12-16T00:43:55;99207.09;;;5.55
12430;BMP280;6279;42.192;24.326;2022-12-16T00:46:20;99211.19;;;5.67
12430;BMP280;6279;42.192;24.326;2022-12-16T00:48:46;99207.19;;;5.73
12430;BMP280;6279;42.192;24.326;2022-12-16T00:51:11;99204.84;;;5.70
12430;BMP280;6279;42.192;24.326;2022-12-16T00:53:36;99212.44;;;5.72
12430;BMP280;6279;42.192;24.326;2022-12-16T00:56:05;99229.63;;;5.62
12430;BMP280;6279;42.192;24.326;2022-12-16T00:58:31;99233.38;;;5.49
12430;BMP280;6279;42.192;24.326;2022-12-16T01:00:56;99226.94;;;5.34
12430;BMP280;6279;42.192;24.326;2022-12-16T01:03:21;99233.63;;;5.37
12430;BMP280;6279;42.192;24.326;2022-12-16T01:05:47;99240.75;;;5.24
12430;BMP280;6279;42.192;24.326;2022-12-16T01:08:13;99248.50;;;5.24
12430;BMP280;6279;42.192;24.326;2022-12-16T01:10:38;99241.16;;;5.20
12430;BMP280;6279;42.192;24.326;2022-12-16T01:13:03;99223.19;;;5.09
12430;BMP280;6279;42.192;24.326;2022-12-16T01:15:29;99219.25;;;5.14
12430;BMP280;6279;42.192;24.326;2022-12-16T01:17:54;99221.56;;;5.17
12430;BMP280;6279;42.192;24.326;2022-12-16T01:20:20;99232.03;;;5.16
12430;BMP280;6279;42.192;24.326;2022-12-16T01:22:45;99233.97;;;5.23
12430;BMP280;6279;42.192;24.326;2022-12-16T01:25:11;99222.31;;;5.28
12430;BMP280;6279;42.192;24.326;2022-12-16T01:27:39;99221.72;;;5.16
12430;BMP280;6279;42.192;24.326;2022-12-16T01:30:05;99215.53;;;5.27
12430;BMP280;6279;42.192;24.326;2022-12-16T01:32:31;99215.66;;;5.26
12430;BMP280;6279;42.192;24.326;2022-12-16T01:34:56;99217.59;;;5.33
12430;BMP280;6279;42.192;24.326;2022-12-16T01:37:23;99205.91;;;5.29
12430;BMP280;6279;42.192;24.326;2022-12-16T01:39:49;99221.09;;;5.23
12430;BMP280;6279;42.192;24.326;2022-12-16T01:42:16;99203.53;;;5.17
12430;BMP280;6279;42.192;24.326;2022-12-16T01:44:43;99184.47;;;5.29
12430;BMP280;6279;42.192;24.326;2022-12-16T01:47:14;99189.09;;;5.35
12430;BMP280;6279;42.192;24.326;2022-12-16T01:49:44;99188.53;;;5.31
12430;BMP280;6279;42.192;24.326;2022-12-16T01:52:15;99185.47;;;5.37
12430;BMP280;6279;42.192;24.326;2022-12-16T01:54:52;99177.72;;;5.37
12430;BMP280;6279;42.192;24.326;2022-12-16T01:57:24;99184.50;;;5.38
12430;BMP280;6279;42.192;24.326;2022-12-16T01:59:52;99197.41;;;5.38
12430;BMP280;6279;42.192;24.326;2022-12-16T02:02:19;99197.22;;;5.30
12430;BMP280;6279;42.192;24.326;2022-12-16T02:04:45;99187.50;;;5.43
12430;BMP280;6279;42.192;24.326;2022-12-16T02:07:33;99183.16;;;5.44
12430;BMP280;6279;42.192;24.326;2022-12-16T02:09:59;99175.97;;;5.47
12430;BMP280;6279;42.192;24.326;2022-12-16T02:12:32;99182.63;;;5.40
12430;BMP280;6279;42.192;24.326;2022-12-16T02:18:36;99170.69;;;5.48
12430;BMP280;6279;42.192;24.326;2022-12-16T02:27:35;99173.56;;;5.55
12430;BMP280;6279;42.192;24.326;2022-12-16T02:35:53;99177.19;;;5.52
12430;BMP280;6279;42.192;24.326;2022-12-16T02:38:53;99177.78;;;5.56
12430;BMP280;6279;42.192;24.326;2022-12-16T02:43:58;99164.16;;;5.45
12430;BMP280;6279;42.192;24.326;2022-12-16T02:46:28;99166.59;;;5.37
12430;BMP280;6279;42.192;24.326;2022-12-16T02:48:54;99173.13;;;5.50
12430;BMP280;6279;42.192;24.326;2022-12-16T02:51:23;99177.06;;;5.54
12430;BMP280;6279;42.192;24.326;2022-12-16T02:53:50;99185.88;;;5.51
12430;BMP280;6279;42.192;24.326;2022-12-16T02:59:11;99199.19;;;5.47
12430;BMP280;6279;42.192;24.326;2022-12-16T03:02:13;99201.50;;;5.50
12430;BMP280;6279;42.192;24.326;2022-12-16T03:07:21;99214.19;;;5.33
12430;BMP280;6279;42.192;24.326;2022-12-16T03:09:49;99206.16;;;5.26
12430;BMP280;6279;42.192;24.326;2022-12-16T03:12:17;99200.34;;;5.24
12430;BMP280;6279;42.192;24.326;2022-12-16T03:14:46;99195.03;;;5.26
12430;BMP280;6279;42.192;24.326;2022-12-16T03:17:14;99200.47;;;5.32
12430;BMP280;6279;42.192;24.326;2022-12-16T03:19:42;99215.59;;;5.17
12430;BMP280;6279;42.192;24.326;2022-12-16T03:22:19;99210.97;;;5.11
12430;BMP280;6279;42.192;24.326;2022-12-16T03:24:45;99203.94;;;5.13
12430;BMP280;6279;42.192;24.326;2022-12-16T03:30:08;99207.72;;;5.09
12430;BMP280;6279;42.192;24.326;2022-12-16T03:32:40;99207.78;;;4.98
12430;BMP280;6279;42.192;24.326;2022-12-16T03:35:24;99215.28;;;5.01
12430;BMP280;6279;42.192;24.326;2022-12-16T03:37:54;99199.00;;;5.01
12430;BMP280;6279;42.192;24.326;2022-12-16T03:40:22;99200.13;;;5.07
12430;BMP280;6279;42.192;24.326;2022-12-16T03:42:51;99206.53;;;4.93
12430;BMP280;6279;42.192;24.326;2022-12-16T03:45:27;99205.88;;;4.71
12430;BMP280;6279;42.192;24.326;2022-12-16T03:48:08;99201.03;;;4.77
12430;BMP280;6279;42.192;24.326;2022-12-16T03:50:41;99214.59;;;4.79
12430;BMP280;6279;42.192;24.326;2022-12-16T03:53:06;99209.09;;;4.83
12430;BMP280;6279;42.192;24.326;2022-12-16T03:55:32;99204.22;;;4.90
12430;BMP280;6279;42.192;24.326;2022-12-16T03:57:57;99208.84;;;4.96
12430;BMP280;6279;42.192;24.326;2022-12-16T04:00:23;99214.69;;;4.98
12430;BMP280;6279;42.192;24.326;2022-12-16T04:02:49;99216.34;;;4.99
12430;BMP280;6279;42.192;24.326;2022-12-16T04:05:16;99220.13;;;4.95
12430;BMP280;6279;42.192;24.326;2022-12-16T04:07:41;99220.94;;;4.95
12430;BMP280;6279;42.192;24.326;2022-12-16T04:10:07;99219.16;;;4.96
12430;BMP280;6279;42.192;24.326;2022-12-16T04:12:33;99208.47;;;5.00
12430;BMP280;6279;42.192;24.326;2022-12-16T04:15:17;99202.69;;;5.07
12430;BMP280;6279;42.192;24.326;2022-12-16T04:18:01;99213.63;;;5.00
12430;BMP280;6279;42.192;24.326;2022-12-16T04:20:48;99214.75;;;5.07
12430;BMP280;6279;42.192;24.326;2022-12-16T04:23:34;99209.59;;;5.07
12430;BMP280;6279;42.192;24.326;2022-12-16T04:26:19;99226.84;;;5.06
12430;BMP280;6279;42.192;24.326;2022-12-16T04:28:45;99234.16;;;5.11
12430;BMP280;6279;42.192;24.326;2022-12-16T04:31:11;99239.47;;;5.09
12430;BMP280;6279;42.192;24.326;2022-12-16T04:33:36;99245.97;;;5.13
12430;BMP280;6279;42.192;24.326;2022-12-16T04:36:20;99224.63;;;5.31
12430;BMP280;6279;42.192;24.326;2022-12-16T04:39:04;99238.75;;;5.27
12430;BMP280;6279;42.192;24.326;2022-12-16T04:41:54;99226.00;;;5.35
12430;BMP280;6279;42.192;24.326;2022-12-16T04:44:38;99221.78;;;5.34
12430;BMP280;6279;42.192;24.326;2022-12-16T04:47:23;99234.91;;;5.22
12430;BMP280;6279;42.192;24.326;2022-12-16T04:50:07;99230.31;;;5.25
12430;BMP280;6279;42.192;24.326;2022-12-16T04:52:51;99221.56;;;5.37
12430;BMP280;6279;42.192;24.326;2022-12-16T04:55:36;99222.31;;;5.28
12430;BMP280;6279;42.192;24.326;2022-12-16T04:58:20;99213.91;;;5.26
12430;BMP280;6279;42.192;24.326;2022-12-16T05:01:04;99201.03;;;5.36
12430;BMP280;6279;42.192;24.326;2022-12-16T05:03:48;99200.25;;;5.45
12430;BMP280;6279;42.192;24.326;2022-12-16T05:06:31;99197.81;;;5.43
12430;BMP280;6279;42.192;24.326;2022-12-16T05:09:15;99217.81;;;5.60
12430;BMP280;6279;42.192;24.326;2022-12-16T05:11:59;99239.16;;;5.62
12430;BMP280;6279;42.192;24.326;2022-12-16T05:14:43;99230.00;;;5.78
12430;BMP280;6279;42.192;24.326;2022-12-16T05:17:27;99215.19;;;5.89
12430;BMP280;6279;42.192;24.326;2022-12-16T05:20:11;99214.00;;;5.93
12430;BMP280;6279;42.192;24.326;2022-12-16T05:22:55;99210.75;;;6.00
12430;BMP280;6279;42.192;24.326;2022-12-16T05:25:40;99199.34;;;6.12
12430;BMP280;6279;42.192;24.326;2022-12-16T05:28:25;99188.03;;;6.04
12430;BMP280;6279;42.192;24.326;2022-12-16T05:31:09;99185.09;;;6.08
12430;BMP280;6279;42.192;24.326;2022-12-16T05:33:53;99201.91;;;6.21
12430;BMP280;6279;42.192;24.326;2022-12-16T05:36:37;99204.78;;;6.37
12430;BMP280;6279;42.192;24.326;2022-12-16T05:39:21;99211.31;;;6.50
12430;BMP280;6279;42.192;24.326;2022-12-16T05:42:05;99192.00;;;6.45
12430;BMP280;6279;42.192;24.326;2022-12-16T05:44:48;99196.63;;;6.51
12430;BMP280;6279;42.192;24.326;2022-12-16T05:47:33;99225.72;;;6.53
12430;BMP280;6279;42.192;24.326;2022-12-16T05:50:16;99234.97;;;6.64
12430;BMP280;6279;42.192;24.326;2022-12-16T05:53:00;99232.50;;;6.72
12430;BMP280;6279;42.192;24.326;2022-12-16T05:55:44;99221.47;;;6.70
12430;BMP280;6279;42.192;24.326;2022-12-16T05:58:28;99215.34;;;6.71
12430;BMP280;6279;42.192;24.326;2022-12-16T06:01:13;99217.25;;;6.69
12430;BMP280;6279;42.192;24.326;2022-12-16T06:03:57;99221.59;;;6.78
12430;BMP280;6279;42.192;24.326;2022-12-16T06:06:41;99234.25;;;6.72
12430;BMP280;6279;42.192;24.326;2022-12-16T06:09:25;99247.75;;;6.66
12430;BMP280;6279;42.192;24.326;2022-12-16T06:12:09;99253.97;;;6.82
12430;BMP280;6279;42.192;24.326;2022-12-16T06:14:53;99263.63;;;6.99
12430;BMP280;6279;42.192;24.326;2022-12-16T06:17:41;99272.59;;;7.04
12430;BMP280;6279;42.192;24.326;2022-12-16T06:20:25;99271.09;;;6.92
12430;BMP280;6279;42.192;24.326;2022-12-16T06:23:10;99275.75;;;6.79
12430;BMP280;6279;42.192;24.326;2022-12-16T06:25:54;99270.84;;;6.58
12430;BMP280;6279;42.192;24.326;2022-12-16T06:28:38;99258.59;;;6.60
12430;BMP280;6279;42.192;24.326;2022-12-16T06:31:22;99260.25;;;6.52
12430;BMP280;6279;42.192;24.326;2022-12-16T06:34:06;99271.00;;;6.47
12430;BMP280;6279;42.192;24.326;2022-12-16T06:36:50;99274.66;;;6.45
12430;BMP280;6279;42.192;24.326;2022-12-16T06:39:34;99297.25;;;6.52
12430;BMP280;6279;42.192;24.326;2022-12-16T06:42:18;99310.00;;;6.54
12430;BMP280;6279;42.192;24.326;2022-12-16T06:45:05;99322.53;;;6.58
12430;BMP280;6279;42.192;24.326;2022-12-16T06:47:49;99330.97;;;6.51
12430;BMP280;6279;42.192;24.326;2022-12-16T06:50:33;99328.53;;;6.68
12430;BMP280;6279;42.192;24.326;2022-12-16T06:53:16;99339.81;;;6.95
12430;BMP280;6279;42.192;24.326;2022-12-16T06:56:00;99330.84;;;6.99
12430;BMP280;6279;42.192;24.326;2022-12-16T06:58:44;99315.44;;;7.06
12430;BMP280;6279;42.192;24.326;2022-12-16T07:01:28;99319.41;;;7.01
12430;BMP280;6279;42.192;24.326;2022-12-16T07:04:12;99316.78;;;7.20
12430;BMP280;6279;42.192;24.326;2022-12-16T07:06:56;99323.97;;;7.35
12430;BMP280;6279;42.192;24.326;2022-12-16T07:09:40;99314.03;;;7.40
12430;BMP280;6279;42.192;24.326;2022-12-16T07:12:24;99329.41;;;7.41
12430;BMP280;6279;42.192;24.326;2022-12-16T07:15:08;99332.44;;;7.18
12430;BMP280;6279;42.192;24.326;2022-12-16T07:17:52;99333.13;;;7.20
12430;BMP280;6279;42.192;24.326;2022-12-16T07:20:36;99337.16;;;7.32
12430;BMP280;6279;42.192;24.326;2022-12-16T07:23:20;99350.19;;;7.49
12430;BMP280;6279;42.192;24.326;2022-12-16T07:26:04;99352.13;;;7.56
12430;BMP280;6279;42.192;24.326;2022-12-16T07:28:48;99357.00;;;7.59
12430;BMP280;6279;42.192;24.326;2022-12-16T07:31:32;99361.59;;;7.65
12430;BMP280;6279;42.192;24.326;2022-12-16T07:34:16;99355.03;;;7.80
12430;BMP280;6279;42.192;24.326;2022-12-16T07:37:00;99357.31;;;7.92
12430;BMP280;6279;42.192;24.326;2022-12-16T07:39:44;99344.03;;;8.04
12430;BMP280;6279;42.192;24.326;2022-12-16T07:42:28;99325.25;;;8.02
12430;BMP280;6279;42.192;24.326;2022-12-16T07:45:12;99334.47;;;8.14
12430;BMP280;6279;42.192;24.326;2022-12-16T07:47:58;99337.06;;;8.14
12430;BMP280;6279;42.192;24.326;2022-12-16T07:50:43;99323.38;;;8.21
12430;BMP280;6279;42.192;24.326;2022-12-16T07:53:27;99319.44;;;8.17
12430;BMP280;6279;42.192;24.326;2022-12-16T07:56:11;99318.63;;;8.17
12430;BMP280;6279;42.192;24.326;2022-12-16T07:58:55;99316.97;;;8.25
12430;BMP280;6279;42.192;24.326;2022-12-16T08:01:39;99309.13;;;8.34
12430;BMP280;6279;42.192;24.326;2022-12-16T08:04:23;99301.16;;;8.19
12430;BMP280;6279;42.192;24.326;2022-12-16T08:07:07;99295.50;;;8.32
12430;BMP280;6279;42.192;24.326;2022-12-16T08:09:51;99295.22;;;8.53
12430;BMP280;6279;42.192;24.326;2022-12-16T08:12:34;99305.44;;;8.71
12430;BMP280;6279;42.192;24.326;2022-12-16T08:15:18;99286.25;;;8.81
12430;BMP280;6279;42.192;24.326;2022-12-16T08:18:02;99281.66;;;8.75
12430;BMP280;6279;42.192;24.326;2022-12-16T08:20:46;99288.00;;;8.98
12430;BMP280;6279;42.192;24.326;2022-12-16T08:23:30;99280.72;;;9.19
12430;BMP280;6279;42.192;24.326;2022-12-16T08:26:14;99294.44;;;9.36
12430;BMP280;6279;42.192;24.326;2022-12-16T08:28:58;99287.59;;;9.52
12430;BMP280;6279;42.192;24.326;2022-12-16T08:31:42;99293.06;;;9.74
12430;BMP280;6279;42.192;24.326;2022-12-16T08:34:26;99289.53;;;9.83
12430;BMP280;6279;42.192;24.326;2022-12-16T08:37:10;99278.22;;;9.92
12430;BMP280;6279;42.192;24.326;2022-12-16T08:39:54;99284.63;;;9.80
12430;BMP280;6279;42.192;24.326;2022-12-16T08:42:38;99284.06;;;9.86
12430;BMP280;6279;42.192;24.326;2022-12-16T08:45:22;99284.72;;;9.96
12430;BMP280;6279;42.192;24.326;2022-12-16T08:48:07;99289.28;;;9.94
12430;BMP280;6279;42.192;24.326;2022-12-16T08:50:50;99289.03;;;10.12
12430;BMP280;6279;42.192;24.326;2022-12-16T08:53:34;99279.78;;;10.18
12430;BMP280;6279;42.192;24.326;2022-12-16T08:56:18;99276.03;;;10.12
12430;BMP280;6279;42.192;24.326;2022-12-16T08:59:03;99262.88;;;10.14
12430;BMP280;6279;42.192;24.326;2022-12-16T09:01:47;99261.19;;;9.89
12430;BMP280;6279;42.192;24.326;2022-12-16T09:04:31;99239.09;;;9.86
12430;BMP280;6279;42.192;24.326;2022-12-16T09:07:15;99244.88;;;10.20
12430;BMP280;6279;42.192;24.326;2022-12-16T09:09:59;99248.97;;;10.46
12430;BMP280;6279;42.192;24.326;2022-12-16T09:12:43;99254.00;;;10.48
12430;BMP280;6279;42.192;24.326;2022-12-16T09:15:26;99253.22;;;10.55
12430;BMP280;6279;42.192;24.326;2022-12-16T09:18:10;99237.44;;;10.49
12430;BMP280;6279;42.192;24.326;2022-12-16T09:20:54;99240.06;;;10.56
12430;BMP280;6279;42.192;24.326;2022-12-16T09:23:38;99239.72;;;10.67
12430;BMP280;6279;42.192;24.326;2022-12-16T09:26:23;99240.06;;;10.80
12430;BMP280;6279;42.192;24.326;2022-12-16T09:29:07;99233.56;;;10.92
12430;BMP280;6279;42.192;24.326;2022-12-16T09:31:51;99235.50;;;10.97
12430;BMP280;6279;42.192;24.326;2022-12-16T09:34:35;99236.00;;;11.09
12430;BMP280;6279;42.192;24.326;2022-12-16T09:37:19;99229.78;;;11.17
12430;BMP280;6279;42.192;24.326;2022-12-16T09:40:03;99221.50;;;11.06
12430;BMP280;6279;42.192;24.326;2022-12-16T09:43:25;99225.41;;;11.10
12430;BMP280;6279;42.192;24.326;2022-12-16T09:49:48;99206.50;;;11.24
12430;BMP280;6279;42.192;24.326;2022-12-16T09:52:40;99202.91;;;11.33
12430;BMP280;6279;42.192;24.326;2022-12-16T09:55:29;99198.69;;;11.32
12430;BMP280;6279;42.192;24.326;2022-12-16T09:58:14;99212.22;;;11.27
12430;BMP280;6279;42.192;24.326;2022-12-16T10:01:00;99209.75;;;11.26
12430;BMP280;6279;42.192;24.326;2022-12-16T10:03:44;99200.31;;;11.25
12430;BMP280;6279;42.192;24.326;2022-12-16T10:06:50;99186.34;;;11.18
12430;BMP280;6279;42.192;24.326;2022-12-16T10:12:35;99174.50;;;11.00
12430;BMP280;6279;42.192;24.326;2022-12-16T10:15:55;99189.16;;;10.93
12430;BMP280;6279;42.192;24.326;2022-12-16T10:21:57;99172.84;;;11.07
12430;BMP280;6279;42.192;24.326;2022-12-16T10:27:42;99171.53;;;11.26
12430;BMP280;6279;42.192;24.326;2022-12-16T10:30:27;99178.19;;;11.37
12430;BMP280;6279;42.192;24.326;2022-12-16T10:33:14;99171.75;;;11.62
12430;BMP280;6279;42.192;24.326;2022-12-16T10:35:59;99183.28;;;11.68
12430;BMP280;6279;42.192;24.326;2022-12-16T10:38:51;99171.66;;;11.78
12430;BMP280;6279;42.192;24.326;2022-12-16T10:41:41;99175.75;;;11.81
12430;BMP280;6279;42.192;24.326;2022-12-16T10:44:56;99182.16;;;12.00
12430;BMP280;6279;42.192;24.326;2022-12-16T10:47:42;99168.03;;;12.17
12430;BMP280;6279;42.192;24.326;2022-12-16T10:50:25;99162.34;;;12.35
12430;BMP280;6279;42.192;24.326;2022-12-16T10:53:15;99167.78;;;12.48
12430;BMP280;6279;42.192;24.326;2022-12-16T10:59:06;99160.63;;;12.64
12430;BMP280;6279;42.192;24.326;2022-12-16T11:02:04;99166.91;;;12.77
12430;BMP280;6279;42.192;24.326;2022-12-16T11:04:58;99157.81;;;12.73
12430;BMP280;6279;42.192;24.326;2022-12-16T11:10:36;99171.97;;;12.79
12430;BMP280;6279;42.192;24.326;2022-12-16T11:18:54;99174.84;;;12.62
12430;BMP280;6279;42.192;24.326;2022-12-16T11:21:38;99161.44;;;12.65
12430;BMP280;6279;42.192;24.326;2022-12-16T11:24:23;99161.78;;;12.70
12430;BMP280;6279;42.192;24.326;2022-12-16T11:30:20;99155.38;;;12.50
12430;BMP280;6279;42.192;24.326;2022-12-16T11:33:31;99151.56;;;12.38
12430;BMP280;6279;42.192;24.326;2022-12-16T11:36:19;99161.50;;;12.13
12430;BMP280;6279;42.192;24.326;2022-12-16T11:39:04;99154.75;;;12.04
12430;BMP280;6279;42.192;24.326;2022-12-16T11:41:52;99151.50;;;12.02
12430;BMP280;6279;42.192;24.326;2022-12-16T11:44:53;99143.09;;;11.92
12430;BMP280;6279;42.192;24.326;2022-12-16T11:47:47;99147.81;;;11.89
12430;BMP280;6279;42.192;24.326;2022-12-16T11:50:35;99151.41;;;11.88
12430;BMP280;6279;42.192;24.326;2022-12-16T11:53:29;99149.81;;;11.87
12430;BMP280;6279;42.192;24.326;2022-12-16T11:56:21;99150.81;;;11.78
12430;BMP280;6279;42.192;24.326;2022-12-16T11:59:13;99150.00;;;11.78
12430;BMP280;6279;42.192;24.326;2022-12-16T12:02:03;99138.44;;;11.80
12430;BMP280;6279;42.192;24.326;2022-12-16T12:04:53;99144.78;;;11.78
12430;BMP280;6279;42.192;24.326;2022-12-16T12:07:43;99143.13;;;11.84
12430;BMP280;6279;42.192;24.326;2022-12-16T12:10:56;99143.09;;;11.92
12430;BMP280;6279;42.192;24.326;2022-12-16T12:13:48;99143.09;;;11.92
12430;BMP280;6279;42.192;24.326;2022-12-16T12:23:06;99158.09;;;11.90
12430;BMP280;6279;42.192;24.326;2022-12-16T12:26:13;99147.19;;;11.87
12430;BMP280;6279;42.192;24.326;2022-12-16T12:41:18;99130.00;;;12.00
12430;BMP280;6279;42.192;24.326;2022-12-16T12:47:16;99148.75;;;11.96
12430;BMP280;6279;42.192;24.326;2022-12-16T12:50:25;99150.63;;;12.09
12430;BMP280;6279;42.192;24.326;2022-12-16T12:56:21;99150.22;;;11.98
12430;BMP280;6279;42.192;24.326;2022-12-16T12:59:41;99155.91;;;11.72
12430;BMP280;6279;42.192;24.326;2022-12-16T13:02:34;99160.91;;;11.81
12430;BMP280;6279;42.192;24.326;2022-12-16T13:05:36;99156.84;;;11.79
12430;BMP280;6279;42.192;24.326;2022-12-16T13:08:52;99155.09;;;11.71
12430;BMP280;6279;42.192;24.326;2022-12-16T13:11:39;99163.41;;;11.67
12430;BMP280;6279;42.192;24.326;2022-12-16T13:15:04;99155.97;;;11.56
12430;BMP280;6279;42.192;24.326;2022-12-16T13:21:02;99169.03;;;11.48
12430;BMP280;6279;42.192;24.326;2022-12-16T13:23:47;99182.31;;;11.61
12430;BMP280;6279;42.192;24.326;2022-12-16T13:26:33;99163.78;;;11.56
12430;BMP280;6279;42.192;24.326;2022-12-16T13:29:25;99172.00;;;11.45
12430;BMP280;6279;42.192;24.326;2022-12-16T13:35:15;99174.91;;;11.42
12430;BMP280;6279;42.192;24.326;2022-12-16T13:38:03;99170.22;;;11.30
12430;BMP280;6279;42.192;24.326;2022-12-16T13:40:55;99165.81;;;11.39
12430;BMP280;6279;42.192;24.326;2022-12-16T13:43:49;99174.94;;;11.35
12430;BMP280;6279;42.192;24.326;2022-12-16T13:55:18;99178.88;;;11.07
12430;BMP280;6279;42.192;24.326;2022-12-16T13:58:18;99186.84;;;11.06
12430;BMP280;6279;42.192;24.326;2022-12-16T14:01:09;99186.00;;;11.21
12430;BMP280;6279;42.192;24.326;2022-12-16T14:03:55;99174.69;;;10.98
12430;BMP280;6279;42.192;24.326;2022-12-16T14:06:39;99174.47;;;11.08
12430;BMP280;6279;42.192;24.326;2022-12-16T14:09:34;99177.63;;;10.95
12430;BMP280;6279;42.192;24.326;2022-12-16T14:21:45;99188.66;;;10.90
12430;BMP280;6279;42.192;24.326;2022-12-16T14:24:33;99183.47;;;10.97
12430;BMP280;6279;42.192;24.326;2022-12-16T14:27:19;99178.56;;;11.02
12430;BMP280;6279;42.192;24.326;2022-12-16T14:32:59;99207.19;;;11.02
12430;BMP280;6279;42.192;24.326;2022-12-16T14:35:49;99209.13;;;11.08
12430;BMP280;6279;42.192;24.326;2022-12-16T14:38:34;99205.25;;;11.04
12430;BMP280;6279;42.192;24.326;2022-12-16T14:41:23;99200.69;;;10.98
12430;BMP280;6279;42.192;24.326;2022-12-16T14:44:17;99204.78;;;10.93
12430;BMP280;6279;42.192;24.326;2022-12-16T14:47:04;99199.41;;;10.87
12430;BMP280;6279;42.192;24.326;2022-12-16T14:49:53;99208.19;;;10.86
12430;BMP280;6279;42.192;24.326;2022-12-16T14:52:38;99204.78;;;10.77
12430;BMP280;6279;42.192;24.326;2022-12-16T14:55:33;99207.22;;;10.63
12430;BMP280;6279;42.192;24.326;2022-12-16T14:58:20;99213.09;;;10.57
12430;BMP280;6279;42.192;24.326;2022-12-16T15:03:55;99227.38;;;10.61
12430;BMP280;6279;42.192;24.326;2022-12-16T15:06:45;99221.53;;;10.67
12430;BMP280;6279;42.192;24.326;2022-12-16T15:09:33;99221.19;;;10.70
12430;BMP280;6279;42.192;24.326;2022-12-16T15:12:23;99236.47;;;10.65
12430;BMP280;6279;42.192;24.326;2022-12-16T15:15:12;99240.56;;;10.60
12430;BMP280;6279;42.192;24.326;2022-12-16T15:17:57;99242.66;;;10.64
12430;BMP280;6279;42.192;24.326;2022-12-16T15:20:53;99237.31;;;10.58
12430;BMP280;6279;42.192;24.326;2022-12-16T15:23:40;99223.78;;;10.47
12430;BMP280;6279;42.192;24.326;2022-12-16T15:26:42;99233.53;;;10.45
12430;BMP280;6279;42.192;24.326;2022-12-16T15:29:27;99240.38;;;10.38
12430;BMP280;6279;42.192;24.326;2022-12-16T15:40:58;99247.53;;;10.44
12430;BMP280;6279;42.192;24.326;2022-12-16T15:43:44;99240.38;;;10.53
12430;BMP280;6279;42.192;24.326;2022-12-16T15:46:28;99237.78;;;10.61
12430;BMP280;6279;42.192;24.326;2022-12-16T15:55:42;99237.47;;;10.64
12430;BMP280;6279;42.192;24.326;2022-12-16T15:58:36;99234.38;;;10.69
12430;BMP280;6279;42.192;24.326;2022-12-16T16:01:24;99234.53;;;10.67
12430;BMP280;6279;42.192;24.326;2022-12-16T16:04:23;99247.19;;;10.70
12430;BMP280;6279;42.192;24.326;2022-12-16T16:07:19;99253.22;;;10.71
12430;BMP280;6279;42.192;24.326;2022-12-16T16:10:14;99247.72;;;10.73
12430;BMP280;6279;42.192;24.326;2022-12-16T16:13:02;99250.16;;;10.75
12430;BMP280;6279;42.192;24.326;2022-12-16T16:15:46;99252.41;;;10.70
12430;BMP280;6279;42.192;24.326;2022-12-16T16:18:35;99251.94;;;10.74
12430;BMP280;6279;42.192;24.326;2022-12-16T16:21:20;99255.03;;;10.78
12430;BMP280;6279;42.192;24.326;2022-12-16T16:24:04;99265.94;;;10.73
12430;BMP280;6279;42.192;24.326;2022-12-16T16:26:49;99269.63;;;10.71
12430;BMP280;6279;42.192;24.326;2022-12-16T16:29:32;99265.13;;;10.73
12430;BMP280;6279;42.192;24.326;2022-12-16T16:32:17;99264.78;;;10.76
12430;BMP280;6279;42.192;24.326;2022-12-16T16:35:22;99261.66;;;10.73
12430;BMP280;6279;42.192;24.326;2022-12-16T16:38:05;99262.19;;;10.76
12430;BMP280;6279;42.192;24.326;2022-12-16T16:40:49;99265.75;;;10.75
12430;BMP280;6279;42.192;24.326;2022-12-16T16:43:35;99264.59;;;10.70
12430;BMP280;6279;42.192;24.326;2022-12-16T16:49:08;99261.50;;;10.66
12430;BMP280;6279;42.192;24.326;2022-12-16T16:51:54;99263.63;;;10.71
12430;BMP280;6279;42.192;24.326;2022-12-16T16:54:41;99266.41;;;10.77
12430;BMP280;6279;42.192;24.326;2022-12-16T16:57:31;99265.44;;;10.78
12430;BMP280;6279;42.192;24.326;2022-12-16T17:00:24;99282.00;;;10.69
12430;BMP280;6279;42.192;24.326;2022-12-16T17:03:11;99273.22;;;10.70
12430;BMP280;6279;42.192;24.326;2022-12-16T17:05:55;99276.34;;;10.73
12430;BMP280;6279;42.192;24.326;2022-12-16T17:08:45;99272.75;;;10.82
12430;BMP280;6279;42.192;24.326;2022-12-16T17:11:32;99279.25;;;10.86
12430;BMP280;6279;42.192;24.326;2022-12-16T17:17:42;99269.81;;;10.85
12430;BMP280;6279;42.192;24.326;2022-12-16T17:20:49;99265.25;;;10.87
12430;BMP280;6279;42.192;24.326;2022-12-16T17:23:33;99264.78;;;10.92
12430;BMP280;6279;42.192;24.326;2022-12-16T17:26:21;99263.81;;;10.93
12430;BMP280;6279;42.192;24.326;2022-12-16T17:29:17;99260.88;;;10.88
12430;BMP280;6279;42.192;24.326;2022-12-16T17:32:01;99258.91;;;10.90
12430;BMP280;6279;42.192;24.326;2022-12-16T17:34:45;99244.09;;;10.90
12430;BMP280;6279;42.192;24.326;2022-12-16T17:37:29;99247.53;;;10.83
12430;BMP280;6279;42.192;24.326;2022-12-16T17:40:17;99249.50;;;10.57
12430;BMP280;6279;42.192;24.326;2022-12-16T17:43:04;99240.38;;;10.69
12430;BMP280;6279;42.192;24.326;2022-12-16T17:46:01;99253.41;;;10.77
12430;BMP280;6279;42.192;24.326;2022-12-16T17:48:54;99256.00;;;10.85
12430;BMP280;6279;42.192;24.326;2022-12-16T17:51:38;99255.38;;;10.91
12430;BMP280;6279;42.192;24.326;2022-12-16T17:54:43;99250.16;;;10.91